createdAt,value
2019-05-30T00:00:53.861Z,11.31
2019-05-30T00:03:26.508Z,11.32
2019-05-30T00:06:00.564Z,11.41
2019-05-30T00:08:34.422Z,11.47
2019-05-30T00:11:08.422Z,11.17
2019-05-30T00:13:40.271Z,11.05
2019-05-30T00:16:13.206Z,10.86
2019-05-30T00:18:47.164Z,10.94
2019-05-30T00:21:20.009Z,10.82
2019-05-30T00:23:52.866Z,10.93
2019-05-30T00:26:25.612Z,10.75
2019-05-30T00:28:58.219Z,10.73
2019-05-30T00:31:31.637Z,10.72
2019-05-30T00:34:05.606Z,10.93
2019-05-30T00:36:38.311Z,10.90
2019-05-30T00:39:11.406Z,10.85
2019-05-30T00:41:42.847Z,10.65
2019-05-30T00:44:17.301Z,10.42
2019-05-30T00:46:49.929Z,10.36
2019-05-30T00:49:21.523Z,10.48
2019-05-30T00:51:56.901Z,10.49
2019-05-30T00:54:29.417Z,10.39
2019-05-30T00:57:04.922Z,10.61
2019-05-30T00:59:38.189Z,10.67
2019-05-30T01:02:12.341Z,10.73
2019-05-30T01:04:46.401Z,10.71
2019-05-30T01:07:18.432Z,10.68
2019-05-30T01:09:51.514Z,10.63
2019-05-30T01:12:25.111Z,10.64
2019-05-30T01:14:57.145Z,10.65
2019-05-30T01:17:29.236Z,10.83
2019-05-30T01:20:03.117Z,10.78
2019-05-30T01:22:35.685Z,10.72
2019-05-30T01:25:08.401Z,10.86
2019-05-30T01:27:42.134Z,10.67
2019-05-30T01:30:17.795Z,10.71
2019-05-30T01:32:51.075Z,10.72
2019-05-30T01:35:24.130Z,10.84
2019-05-30T01:37:55.886Z,10.82
2019-05-30T01:40:28.436Z,10.85
2019-05-30T01:43:02.094Z,10.77
2019-05-30T01:45:34.184Z,10.72
2019-05-30T01:48:06.508Z,10.78
2019-05-30T01:50:39.247Z,10.82
2019-05-30T01:53:10.454Z,10.76
2019-05-30T01:55:50.243Z,10.83
2019-05-30T01:58:23.764Z,10.72
2019-05-30T02:00:55.018Z,10.64
2019-05-30T02:03:29.435Z,10.60
2019-05-30T02:06:03.249Z,10.62
2019-05-30T02:08:35.920Z,10.73
2019-05-30T02:11:09.645Z,10.59
2019-05-30T02:13:42.774Z,10.67
2019-05-30T02:16:15.216Z,10.62
2019-05-30T02:18:47.152Z,10.45
2019-05-30T02:21:19.045Z,10.41
2019-05-30T02:23:50.568Z,10.57
2019-05-30T02:26:23.969Z,10.61
2019-05-30T02:28:56.259Z,10.36
2019-05-30T02:31:38.973Z,10.42
2019-05-30T02:34:05.292Z,10.49
2019-05-30T02:36:37.752Z,10.48
2019-05-30T02:39:11.361Z,10.46
2019-05-30T02:41:46.393Z,10.31
2019-05-30T02:44:18.593Z,10.46
2019-05-30T02:46:52.199Z,10.54
2019-05-30T02:49:24.329Z,10.55
2019-05-30T02:51:55.433Z,10.30
2019-05-30T02:54:29.071Z,10.29
2019-05-30T02:57:03.406Z,10.36
2019-05-30T02:59:35.822Z,10.52
2019-05-30T03:02:16.789Z,10.59
2019-05-30T03:05:01.630Z,10.76
2019-05-30T03:07:35.050Z,10.82
2019-05-30T03:10:11.711Z,10.62
2019-05-30T03:12:41.396Z,10.55
2019-05-30T03:15:15.587Z,10.52
2019-05-30T03:17:48.799Z,10.46
2019-05-30T03:20:23.691Z,10.49
2019-05-30T03:22:55.629Z,10.65
2019-05-30T03:25:29.251Z,10.57
2019-05-30T03:28:02.775Z,10.60
2019-05-30T03:30:34.908Z,10.82
2019-05-30T03:33:26.587Z,10.66
2019-05-30T03:35:44.686Z,10.71
2019-05-30T03:38:18.314Z,10.71
2019-05-30T03:40:49.751Z,10.49
2019-05-30T03:43:21.288Z,10.68
2019-05-30T03:45:54.329Z,10.73
2019-05-30T03:48:27.080Z,10.66
2019-05-30T03:51:00.128Z,10.75
2019-05-30T03:53:33.578Z,10.78
2019-05-30T03:56:12.026Z,10.75
2019-05-30T03:58:57.325Z,10.80
2019-05-30T04:01:34.865Z,10.77
2019-05-30T04:04:20.160Z,10.88
2019-05-30T04:06:57.418Z,10.74
2019-05-30T04:09:30.163Z,10.94
2019-05-30T04:12:14.864Z,10.96
2019-05-30T04:14:52.404Z,11.08
2019-05-30T04:17:23.739Z,11.08
2019-05-30T04:19:55.796Z,11.09
2019-05-30T04:22:32.299Z,11.15
2019-05-30T04:25:05.043Z,11.26
2019-05-30T04:27:36.412Z,11.26
2019-05-30T04:30:10.003Z,11.30
2019-05-30T04:32:46.131Z,11.30
2019-05-30T04:35:19.028Z,11.52
2019-05-30T04:37:51.275Z,11.48
2019-05-30T04:40:22.477Z,11.59
2019-05-30T04:42:53.716Z,11.57
2019-05-30T04:45:27.937Z,11.54
2019-05-30T04:47:58.569Z,11.75
2019-05-30T04:50:30.017Z,11.82
2019-05-30T04:53:02.584Z,11.78
2019-05-30T04:55:36.526Z,11.84
2019-05-30T04:58:11.101Z,12.02
2019-05-30T05:00:43.838Z,12.14
2019-05-30T05:03:28.817Z,12.12
2019-05-30T05:05:52.721Z,12.18
2019-05-30T05:08:24.450Z,12.17
2019-05-30T05:10:57.361Z,12.18
2019-05-30T05:13:29.763Z,12.37
2019-05-30T05:16:01.972Z,12.48
2019-05-30T05:18:35.332Z,12.54
2019-05-30T05:21:07.196Z,12.58
2019-05-30T05:23:38.358Z,12.94
2019-05-30T05:26:11.782Z,13.01
2019-05-30T05:28:43.100Z,13.31
2019-05-30T05:31:14.709Z,13.31
2019-05-30T05:33:56.536Z,13.14
2019-05-30T05:36:25.210Z,13.39
2019-05-30T05:38:57.720Z,13.64
2019-05-30T05:41:31.733Z,13.53
2019-05-30T05:44:03.832Z,13.93
2019-05-30T05:46:36.409Z,13.93
2019-05-30T05:49:08.293Z,14.22
2019-05-30T05:51:39.673Z,14.15
2019-05-30T05:54:10.762Z,14.11
2019-05-30T05:56:43.077Z,14.17
2019-05-30T05:59:17.005Z,14.07
2019-05-30T06:01:49.157Z,14.31
2019-05-30T06:04:21.133Z,14.45
2019-05-30T06:06:53.540Z,14.58
2019-05-30T06:09:25.853Z,14.82
2019-05-30T06:11:59.349Z,14.99
2019-05-30T06:14:32.329Z,15.09
2019-05-30T06:17:04.592Z,15.39
2019-05-30T06:19:46.475Z,15.59
2019-05-30T06:22:17.398Z,15.38
2019-05-30T06:24:51.439Z,15.37
2019-05-30T06:27:24.564Z,15.61
2019-05-30T06:29:58.595Z,15.84
2019-05-30T06:32:32.500Z,16.20
2019-05-30T06:35:04.877Z,16.41
2019-05-30T06:37:38.054Z,16.64
2019-05-30T06:40:10.459Z,16.71
2019-05-30T06:42:43.634Z,16.88
2019-05-30T06:45:16.008Z,16.99
2019-05-30T06:47:48.423Z,16.93
2019-05-30T06:50:24.626Z,16.85
2019-05-30T06:52:58.756Z,16.96
2019-05-30T06:55:32.568Z,17.04
2019-05-30T06:58:03.687Z,17.37
2019-05-30T07:00:34.962Z,17.18
2019-05-30T07:03:07.107Z,17.50
2019-05-30T07:05:38.689Z,17.58
2019-05-30T07:08:13.245Z,17.67
2019-05-30T07:10:47.142Z,17.42
2019-05-30T07:13:19.367Z,17.64
2019-05-30T07:15:52.487Z,17.50
2019-05-30T07:18:25.704Z,17.45
2019-05-30T07:20:58.484Z,17.86
2019-05-30T07:23:39.227Z,17.57
2019-05-30T07:26:13.199Z,17.77
2019-05-30T07:28:44.836Z,17.86
2019-05-30T07:31:16.127Z,18.03
2019-05-30T07:33:47.959Z,18.02
2019-05-30T07:36:20.971Z,18.10
2019-05-30T07:38:54.207Z,18.61
2019-05-30T07:41:28.772Z,18.36
2019-05-30T07:44:00.911Z,18.60
2019-05-30T07:46:33.586Z,18.60
2019-05-30T07:49:05.761Z,18.37
2019-05-30T07:51:39.006Z,18.72
2019-05-30T07:54:10.368Z,18.75
2019-05-30T07:56:42.378Z,18.82
2019-05-30T07:59:14.080Z,18.63
2019-05-30T08:01:47.126Z,18.98
2019-05-30T08:04:21.223Z,19.13
2019-05-30T08:06:53.697Z,19.66
2019-05-30T08:09:29.208Z,19.59
2019-05-30T08:12:02.567Z,19.23
2019-05-30T08:14:35.279Z,19.34
2019-05-30T08:17:09.470Z,19.42
2019-05-30T08:19:43.457Z,19.45
2019-05-30T08:22:17.659Z,19.61
2019-05-30T08:24:51.389Z,20.50
2019-05-30T08:27:40.263Z,20.40
2019-05-30T08:30:15.675Z,20.75
2019-05-30T08:32:48.392Z,20.75
2019-05-30T08:35:21.920Z,20.42
2019-05-30T08:37:55.822Z,20.44
2019-05-30T08:40:31.131Z,20.37
2019-05-30T08:43:08.688Z,20.23
2019-05-30T08:45:40.576Z,20.71
2019-05-30T08:48:12.617Z,20.68
2019-05-30T08:50:45.921Z,20.58
2019-05-30T08:53:18.844Z,20.65
2019-05-30T08:55:52.346Z,20.36
2019-05-30T08:58:27.343Z,20.63
2019-05-30T09:00:59.902Z,20.58
2019-05-30T09:03:33.088Z,20.67
2019-05-30T09:06:04.662Z,20.49
2019-05-30T09:08:39.952Z,20.37
2019-05-30T09:11:11.624Z,20.43
2019-05-30T09:13:46.684Z,20.22
2019-05-30T09:16:20.427Z,20.25
2019-05-30T09:18:57.619Z,19.90
2019-05-30T09:21:41.351Z,19.87
2019-05-30T09:24:13.283Z,19.84
2019-05-30T09:26:47.448Z,19.95
2019-05-30T09:29:19.194Z,19.36
2019-05-30T09:31:50.421Z,19.60
2019-05-30T09:34:24.007Z,19.52
2019-05-30T09:36:58.232Z,19.05
2019-05-30T09:39:34.108Z,19.31
2019-05-30T09:42:07.994Z,19.25
2019-05-30T09:44:41.101Z,19.19
2019-05-30T09:47:14.766Z,19.40
2019-05-30T09:49:48.588Z,19.24
2019-05-30T09:52:20.706Z,19.12
2019-05-30T09:54:53.570Z,19.13
2019-05-30T09:57:27.662Z,19.18
2019-05-30T10:00:01.783Z,19.48
2019-05-30T10:02:34.201Z,19.43
2019-05-30T10:05:09.921Z,19.61
2019-05-30T10:07:43.549Z,19.93
2019-05-30T10:10:16.292Z,19.69
2019-05-30T10:12:50.387Z,19.63
2019-05-30T10:15:23.223Z,19.55
2019-05-30T10:17:56.996Z,19.45
2019-05-30T10:20:29.957Z,19.55
2019-05-30T10:23:03.706Z,19.95
2019-05-30T10:25:36.329Z,19.98
2019-05-30T10:28:08.773Z,19.89
2019-05-30T10:30:40.442Z,19.69
2019-05-30T10:33:12.749Z,19.66
2019-05-30T10:35:47.355Z,19.45
2019-05-30T10:39:08.054Z,19.61
2019-05-30T10:41:49.057Z,19.41
2019-05-30T10:44:21.521Z,19.41
2019-05-30T10:46:54.548Z,19.56
2019-05-30T10:49:34.606Z,19.65
2019-05-30T10:52:01.856Z,19.38
2019-05-30T10:54:34.329Z,19.85
2019-05-30T10:57:07.526Z,19.78
2019-05-30T10:59:40.319Z,19.47
2019-05-30T11:02:13.244Z,19.39
2019-05-30T11:04:47.789Z,19.42
2019-05-30T11:07:33.970Z,19.39
2019-05-30T11:10:11.443Z,19.21
2019-05-30T11:12:44.271Z,19.34
2019-05-30T11:15:16.298Z,19.60
2019-05-30T11:17:50.541Z,19.60
2019-05-30T11:20:23.327Z,19.16
2019-05-30T11:22:54.744Z,19.54
2019-05-30T11:25:26.689Z,19.52
2019-05-30T11:28:00.088Z,19.63
2019-05-30T11:30:33.000Z,19.27
2019-05-30T11:33:06.241Z,19.20
2019-05-30T11:35:37.932Z,19.37
2019-05-30T11:38:11.375Z,19.33
2019-05-30T11:40:45.360Z,19.30
2019-05-30T11:43:18.837Z,19.40
2019-05-30T11:45:51.638Z,19.24
2019-05-30T11:48:23.305Z,19.62
2019-05-30T11:50:57.890Z,19.39
2019-05-30T11:53:29.892Z,19.32
2019-05-30T11:56:03.904Z,19.67
2019-05-30T11:58:36.116Z,19.63
2019-05-30T12:01:08.311Z,19.47
2019-05-30T12:03:40.159Z,19.64
2019-05-30T12:06:12.675Z,19.54
2019-05-30T12:08:44.823Z,19.69
2019-05-30T12:11:15.941Z,19.74
2019-05-30T12:13:48.202Z,19.60
2019-05-30T12:16:20.544Z,19.47
2019-05-30T12:18:53.951Z,19.56
2019-05-30T12:21:29.806Z,19.46
2019-05-30T12:24:02.393Z,19.74
2019-05-30T12:26:34.746Z,19.44
2019-05-30T12:29:07.315Z,19.39
2019-05-30T12:31:39.695Z,19.26
2019-05-30T12:34:13.695Z,19.35
2019-05-30T12:36:45.538Z,19.24
2019-05-30T12:39:19.813Z,19.10
2019-05-30T12:41:53.415Z,19.23
2019-05-30T12:44:26.872Z,19.23
2019-05-30T12:46:59.236Z,19.32
2019-05-30T12:49:32.473Z,19.34
2019-05-30T12:52:03.519Z,19.39
2019-05-30T12:54:36.255Z,19.32
2019-05-30T12:57:08.354Z,19.23
2019-05-30T12:59:39.826Z,19.21
2019-05-30T13:02:13.358Z,19.01
2019-05-30T13:04:45.414Z,19.02
2019-05-30T13:07:18.290Z,18.97
2019-05-30T13:09:50.093Z,18.92
2019-05-30T13:12:21.196Z,19.02
2019-05-30T13:14:55.491Z,18.95
2019-05-30T13:17:27.136Z,19.32
2019-05-30T13:20:01.474Z,19.44
2019-05-30T13:22:32.958Z,19.65
2019-05-30T13:25:05.692Z,19.83
2019-05-30T13:27:37.920Z,19.93
2019-05-30T13:30:10.938Z,20.35
2019-05-30T13:32:42.945Z,20.55
2019-05-30T13:35:17.234Z,20.69
2019-05-30T13:37:48.663Z,20.56
2019-05-30T13:40:24.893Z,20.06
2019-05-30T13:42:54.319Z,20.31
2019-05-30T13:45:26.524Z,20.24
2019-05-30T13:48:02.465Z,20.16
2019-05-30T13:50:35.051Z,19.97
2019-05-30T13:53:09.214Z,20.27
2019-05-30T13:55:41.783Z,20.56
2019-05-30T13:58:14.488Z,19.73
2019-05-30T14:00:46.777Z,20.11
2019-05-30T14:03:20.265Z,19.85
2019-05-30T14:05:51.918Z,19.77
2019-05-30T14:08:25.281Z,19.98
2019-05-30T14:10:57.562Z,19.72
2019-05-30T14:13:30.537Z,19.96
2019-05-30T14:16:03.261Z,19.84
2019-05-30T14:18:36.407Z,19.83
2019-05-30T14:21:09.500Z,19.97
2019-05-30T14:23:40.675Z,20.12
2019-05-30T14:26:13.035Z,20.05
2019-05-30T14:28:45.519Z,20.21
2019-05-30T14:31:17.714Z,20.33
2019-05-30T14:34:02.098Z,20.28
2019-05-30T14:36:37.660Z,19.93
2019-05-30T14:39:11.233Z,20.09
2019-05-30T14:41:44.126Z,20.00
2019-05-30T14:44:15.386Z,20.22
2019-05-30T14:46:59.701Z,20.28
2019-05-30T14:49:32.092Z,20.65
2019-05-30T14:52:11.853Z,20.74
2019-05-30T14:54:47.030Z,21.03
2019-05-30T14:57:26.328Z,20.74
2019-05-30T14:59:58.417Z,20.51
2019-05-30T15:02:35.693Z,20.41
2019-05-30T15:05:11.458Z,20.34
2019-05-30T15:07:42.729Z,20.54
2019-05-30T15:10:14.343Z,20.71
2019-05-30T15:12:45.660Z,20.79
2019-05-30T15:15:18.789Z,20.64
2019-05-30T15:17:50.438Z,20.66
2019-05-30T15:20:22.947Z,20.53
2019-05-30T15:22:54.954Z,20.48
2019-05-30T15:25:26.193Z,20.57
2019-05-30T15:27:57.962Z,20.78
2019-05-30T15:30:30.462Z,20.75
2019-05-30T15:33:02.472Z,20.51
2019-05-30T15:35:35.284Z,20.49
2019-05-30T15:38:08.784Z,20.59
2019-05-30T15:40:41.173Z,20.58
2019-05-30T15:43:13.428Z,20.59
2019-05-30T15:45:45.502Z,20.43
2019-05-30T15:48:22.271Z,20.31
2019-05-30T15:50:54.649Z,20.41
2019-05-30T15:53:27.138Z,20.27
2019-05-30T15:55:59.638Z,20.65
2019-05-30T15:58:32.954Z,20.52
2019-05-30T16:01:05.164Z,20.52
2019-05-30T16:03:36.917Z,20.49
2019-05-30T16:06:08.100Z,20.49
2019-05-30T16:08:45.393Z,20.34
2019-05-30T16:11:14.953Z,20.38
2019-05-30T16:13:46.913Z,20.34
2019-05-30T16:16:33.763Z,20.07
2019-05-30T16:18:53.311Z,20.22
2019-05-30T16:21:31.537Z,19.99
2019-05-30T16:24:03.694Z,20.18
2019-05-30T16:26:34.967Z,20.04
2019-05-30T16:29:07.792Z,20.07
2019-05-30T16:31:40.566Z,20.12
2019-05-30T16:34:12.103Z,20.12
2019-05-30T16:36:44.527Z,20.16
2019-05-30T16:39:16.086Z,20.15
2019-05-30T16:41:47.132Z,20.00
2019-05-30T16:44:20.432Z,20.09
2019-05-30T16:46:54.971Z,20.00
2019-05-30T16:49:28.338Z,20.01
2019-05-30T16:52:00.908Z,20.13
2019-05-30T16:54:32.274Z,19.77
2019-05-30T16:57:03.513Z,19.90
2019-05-30T16:59:36.478Z,20.11
2019-05-30T17:02:08.228Z,19.84
2019-05-30T17:04:39.790Z,19.76
2019-05-30T17:07:11.130Z,19.82
2019-05-30T17:09:42.859Z,20.04
2019-05-30T17:12:15.335Z,19.69
2019-05-30T17:14:46.865Z,19.55
2019-05-30T17:17:18.236Z,19.66
2019-05-30T17:19:49.371Z,19.52
2019-05-30T17:22:20.809Z,19.52
2019-05-30T17:24:54.537Z,19.34
2019-05-30T17:30:15.956Z,19.48
2019-05-30T17:32:48.189Z,19.48
2019-05-30T17:35:20.102Z,19.58
2019-05-30T17:37:52.170Z,19.82
2019-05-30T17:40:39.111Z,19.70
2019-05-30T17:42:58.538Z,19.60
2019-05-30T17:45:30.347Z,19.58
2019-05-30T17:48:15.986Z,19.56
2019-05-30T17:50:38.207Z,19.47
2019-05-30T17:53:10.173Z,19.56
2019-05-30T17:55:42.375Z,19.56
2019-05-30T17:58:15.045Z,19.41
2019-05-30T18:00:46.490Z,19.55
2019-05-30T18:03:18.084Z,19.66
2019-05-30T18:05:49.782Z,19.66
2019-05-30T18:08:21.210Z,19.50
2019-05-30T18:10:54.023Z,19.54
2019-05-30T18:13:27.096Z,19.61
2019-05-30T18:16:03.758Z,19.39
2019-05-30T18:18:35.087Z,19.52
2019-05-30T18:21:07.274Z,19.31
2019-05-30T18:23:39.126Z,19.45
2019-05-30T18:26:11.890Z,19.47
2019-05-30T18:28:43.373Z,19.47
2019-05-30T18:31:15.297Z,19.47
2019-05-30T18:33:48.497Z,19.51
2019-05-30T18:36:19.744Z,19.43
2019-05-30T18:38:51.117Z,19.40
2019-05-30T18:41:22.710Z,19.36
2019-05-30T18:43:53.958Z,19.49
2019-05-30T18:46:25.139Z,19.35
2019-05-30T18:48:59.823Z,19.42
2019-05-30T18:51:34.371Z,19.29
2019-05-30T18:54:06.848Z,19.39
2019-05-30T18:56:41.128Z,19.22
2019-05-30T18:59:16.134Z,19.16
2019-05-30T19:01:50.725Z,19.14
2019-05-30T19:04:31.609Z,19.17
2019-05-30T19:07:05.123Z,19.27
2019-05-30T19:09:41.437Z,19.27
2019-05-30T19:12:17.042Z,19.15
2019-05-30T19:14:52.287Z,19.18
2019-05-30T19:17:25.706Z,19.23
2019-05-30T19:20:03.897Z,19.07
2019-05-30T19:22:37.461Z,19.08
2019-05-30T19:25:12.238Z,19.02
2019-05-30T19:27:51.547Z,19.05
2019-05-30T19:30:26.975Z,19.03
2019-05-30T19:33:01.306Z,19.00
2019-05-30T19:35:33.472Z,18.98
2019-05-30T19:38:06.460Z,19.00
2019-05-30T19:40:44.683Z,18.96
2019-05-30T19:43:19.438Z,18.95
2019-05-30T19:45:53.386Z,18.93
2019-05-30T19:48:25.405Z,18.99
2019-05-30T19:51:07.956Z,18.79
2019-05-30T19:53:44.469Z,18.97
2019-05-30T19:56:14.658Z,19.00
2019-05-30T19:58:52.235Z,18.83
2019-05-30T20:01:24.585Z,18.96
2019-05-30T20:03:57.118Z,18.87
2019-05-30T20:06:28.153Z,18.86
2019-05-30T20:09:00.068Z,18.78
2019-05-30T20:11:33.222Z,18.86
2019-05-30T20:14:04.622Z,18.69
2019-05-30T20:16:35.751Z,18.62
2019-05-30T20:19:07.099Z,18.72
2019-05-30T20:21:39.875Z,18.93
2019-05-30T20:24:10.581Z,18.90
2019-05-30T20:26:41.318Z,18.63
2019-05-30T20:29:12.688Z,18.60
2019-05-30T20:31:43.655Z,18.50
2019-05-30T20:34:14.308Z,18.74
2019-05-30T20:36:45.068Z,18.80
2019-05-30T20:39:15.705Z,18.67
2019-05-30T20:41:47.243Z,18.59
2019-05-30T20:44:18.119Z,18.55
2019-05-30T20:46:49.809Z,18.68
2019-05-30T20:49:20.113Z,18.40
2019-05-30T20:51:50.701Z,18.55
2019-05-30T20:54:21.237Z,18.49
2019-05-30T20:56:51.988Z,18.53
2019-05-30T20:59:25.516Z,18.54
2019-05-30T21:01:56.282Z,18.52
2019-05-30T21:04:26.795Z,18.49
2019-05-30T21:06:58.629Z,18.21
2019-05-30T21:09:30.322Z,18.17
2019-05-30T21:12:02.649Z,18.25
2019-05-30T21:14:35.541Z,18.38
2019-05-30T21:17:06.318Z,18.27
2019-05-30T21:19:37.777Z,18.05
2019-05-30T21:22:09.374Z,18.11
2019-05-30T21:24:40.650Z,18.08
2019-05-30T21:27:11.454Z,18.07
2019-05-30T21:29:43.068Z,17.95
2019-05-30T21:32:14.454Z,17.96
2019-05-30T21:34:46.588Z,17.95
2019-05-30T21:37:17.647Z,18.02
2019-05-30T21:39:49.065Z,18.06
2019-05-30T21:42:19.819Z,18.06
2019-05-30T21:44:52.758Z,18.29
2019-05-30T21:47:23.256Z,18.03
2019-05-30T21:49:53.559Z,17.94
2019-05-30T21:52:24.201Z,17.94
2019-05-30T21:54:54.504Z,17.89
2019-05-30T21:57:25.610Z,17.77
2019-05-30T21:59:56.202Z,17.81
2019-05-30T22:02:27.096Z,17.82
2019-05-30T22:04:57.263Z,17.68
2019-05-30T22:07:27.700Z,17.58
2019-05-30T22:09:57.946Z,17.55
2019-05-30T22:12:29.818Z,17.72
2019-05-30T22:15:00.319Z,17.83
2019-05-30T22:17:30.363Z,17.75
2019-05-30T22:20:01.446Z,17.69
2019-05-30T22:22:33.575Z,17.69
2019-05-30T22:25:04.623Z,17.82
2019-05-30T22:27:35.194Z,17.58
2019-05-30T22:30:06.842Z,17.60
2019-05-30T22:32:38.522Z,17.52
2019-05-30T22:35:10.148Z,17.48
2019-05-30T22:37:40.567Z,17.45
2019-05-30T22:40:11.543Z,17.33
2019-05-30T22:42:41.803Z,17.31
2019-05-30T22:45:12.228Z,17.45
2019-05-30T22:47:44.126Z,17.24
2019-05-30T22:50:31.063Z,17.33
2019-05-30T22:53:01.118Z,17.05
2019-05-30T22:55:31.340Z,17.09
2019-05-30T22:58:01.917Z,17.04
2019-05-30T23:00:32.175Z,17.01
2019-05-30T23:03:02.730Z,17.08
2019-05-30T23:05:33.013Z,17.01
2019-05-30T23:08:03.484Z,16.98
2019-05-30T23:10:34.824Z,17.00
2019-05-30T23:13:04.984Z,17.07
2019-05-30T23:15:36.203Z,17.10
2019-05-30T23:18:07.137Z,17.22
2019-05-30T23:20:37.180Z,17.00
2019-05-30T23:23:07.805Z,17.17
2019-05-30T23:25:37.672Z,17.17
2019-05-30T23:28:08.954Z,17.24
2019-05-30T23:30:39.250Z,17.30
2019-05-30T23:33:09.981Z,17.16
2019-05-30T23:35:40.275Z,17.23
2019-05-30T23:38:12.145Z,17.25
2019-05-30T23:40:42.901Z,17.08
2019-05-30T23:47:18.737Z,17.23
2019-05-30T23:49:51.661Z,17.33
2019-05-30T23:52:22.358Z,17.19
2019-05-30T23:54:52.732Z,17.35
2019-05-30T23:57:22.903Z,17.26
2019-05-30T23:59:54.751Z,17.13
